createdAt,value
2017-07-18T00:02:04.866Z,97.33
2017-07-18T00:07:00.648Z,97.61
2017-07-18T00:11:56.861Z,97.80
2017-07-18T00:16:52.678Z,97.71
2017-07-18T00:21:48.418Z,97.61
2017-07-18T00:26:45.260Z,97.80
2017-07-18T00:31:41.868Z,98.19
2017-07-18T00:36:37.454Z,98.47
2017-07-18T00:41:33.262Z,99.00
2017-07-18T00:46:29.432Z,99.29
2017-07-18T00:51:26.380Z,99.58
2017-07-18T00:56:23.093Z,99.99
2017-07-18T01:01:19.561Z,99.99
2017-07-18T01:06:16.217Z,99.99
2017-07-18T01:11:12.804Z,99.99
2017-07-18T01:16:08.320Z,99.99
2017-07-18T01:21:05.332Z,99.99
2017-07-18T01:26:01.042Z,99.99
2017-07-18T01:30:57.998Z,99.99
2017-07-18T01:35:53.405Z,99.99
2017-07-18T01:40:50.984Z,99.99
2017-07-18T01:45:46.442Z,99.99
2017-07-18T01:50:42.302Z,99.99
2017-07-18T01:55:39.217Z,99.99
2017-07-18T02:00:36.158Z,99.99
2017-07-18T02:05:31.588Z,99.99
2017-07-18T02:10:29.364Z,99.99
2017-07-18T02:15:25.262Z,99.99
2017-07-18T02:20:21.036Z,99.99
2017-07-18T02:25:17.916Z,99.99
2017-07-18T02:30:13.387Z,99.99
2017-07-18T02:35:08.908Z,99.99
2017-07-18T02:40:04.846Z,99.99
2017-07-18T02:45:01.836Z,99.99
2017-07-18T02:49:57.194Z,99.99
2017-07-18T02:54:53.393Z,99.99
2017-07-18T02:59:49.868Z,99.99
2017-07-18T03:04:45.507Z,99.99
2017-07-18T03:09:41.331Z,99.99
2017-07-18T03:14:37.158Z,99.99
2017-07-18T03:19:32.997Z,99.99
2017-07-18T03:24:29.751Z,99.99
2017-07-18T03:29:25.236Z,99.99
2017-07-18T03:34:22.141Z,99.99
2017-07-18T03:39:17.723Z,99.99
2017-07-18T03:44:14.873Z,99.99
2017-07-18T03:49:10.515Z,99.99
2017-07-18T03:54:06.396Z,99.99
2017-07-18T03:59:03.313Z,99.99
2017-07-18T04:04:00.196Z,99.99
2017-07-18T04:08:55.957Z,99.99
2017-07-18T04:13:51.867Z,99.99
2017-07-18T04:18:48.953Z,99.99
2017-07-18T04:23:45.387Z,99.99
2017-07-18T04:28:41.262Z,99.99
2017-07-18T04:33:37.382Z,99.99
2017-07-18T04:38:34.707Z,99.99
2017-07-18T04:43:30.781Z,99.99
2017-07-18T04:48:27.575Z,99.19
2017-07-18T04:53:24.400Z,96.47
2017-07-18T04:58:21.662Z,94.98
2017-07-18T05:03:17.757Z,94.98
2017-07-18T05:08:14.950Z,92.68
2017-07-18T05:13:10.988Z,91.52
2017-07-18T05:18:08.070Z,90.42
2017-07-18T05:23:04.191Z,90.85
2017-07-18T05:28:01.167Z,90.52
2017-07-18T05:32:58.295Z,91.42
2017-07-18T05:37:54.221Z,92.91
2017-07-18T05:42:50.225Z,91.19
2017-07-18T05:47:47.240Z,90.80
2017-07-18T05:52:44.217Z,90.61
2017-07-18T05:57:42.044Z,90.46
2017-07-18T06:02:38.558Z,90.22
2017-07-18T06:07:34.581Z,91.13
2017-07-18T06:12:32.578Z,90.08
2017-07-18T06:17:30.342Z,89.98
2017-07-18T06:22:25.456Z,90.37
2017-07-18T06:27:21.284Z,91.96
2017-07-18T06:32:17.225Z,92.14
2017-07-18T06:37:13.657Z,91.33
2017-07-18T06:42:12.101Z,90.17
2017-07-18T06:47:10.719Z,89.74
2017-07-18T06:52:07.895Z,88.15
2017-07-18T06:57:06.133Z,88.34
2017-07-18T07:02:02.813Z,89.83
2017-07-18T07:06:58.706Z,90.94
2017-07-18T07:11:56.825Z,90.94
2017-07-18T07:32:01.366Z,90.27
2017-07-18T07:36:57.844Z,90.22
2017-07-18T07:41:56.456Z,89.88
2017-07-18T07:51:55.963Z,86.94
2017-07-18T07:56:55.280Z,85.54
2017-07-18T08:07:04.163Z,78.27
2017-07-18T08:12:01.687Z,75.89
2017-07-18T08:17:01.928Z,76.05
2017-07-18T08:27:04.015Z,75.18
2017-07-18T08:31:58.470Z,76.30
2017-07-18T08:36:54.062Z,78.29
2017-07-18T08:41:51.147Z,75.53
2017-07-18T08:46:47.229Z,75.72
2017-07-18T08:51:46.938Z,71.94
2017-07-18T08:56:46.754Z,67.66
2017-07-18T09:01:48.872Z,65.30
2017-07-18T09:06:44.948Z,62.14
2017-07-18T09:11:43.841Z,60.91
2017-07-18T09:16:39.872Z,60.21
2017-07-18T09:21:36.696Z,62.63
2017-07-18T09:26:36.288Z,62.47
2017-07-18T09:31:31.415Z,60.37
2017-07-18T09:36:28.193Z,58.85
2017-07-18T09:41:25.769Z,59.21
2017-07-18T09:46:21.523Z,63.60
2017-07-18T09:51:18.435Z,61.33
2017-07-18T09:56:14.846Z,58.89
2017-07-18T10:01:11.665Z,60.85
2017-07-18T10:06:07.656Z,57.88
2017-07-18T10:11:04.104Z,58.72
2017-07-18T10:16:01.214Z,59.83
2017-07-18T10:20:57.224Z,59.98
2017-07-18T10:25:53.496Z,57.46
2017-07-18T10:30:50.414Z,59.08
2017-07-18T10:35:46.292Z,59.53
2017-07-18T10:40:43.495Z,59.43
2017-07-18T10:45:41.469Z,58.02
2017-07-18T10:50:38.787Z,59.01
2017-07-18T10:55:35.892Z,58.53
2017-07-18T11:00:32.018Z,57.36
2017-07-18T11:05:27.547Z,57.20
2017-07-18T11:10:23.945Z,59.07
2017-07-18T11:15:20.711Z,57.36
2017-07-18T11:20:17.596Z,58.30
2017-07-18T11:25:14.562Z,58.65
2017-07-18T11:30:13.112Z,58.20
2017-07-18T11:35:09.369Z,56.90
2017-07-18T11:40:06.094Z,57.04
2017-07-18T11:45:02.289Z,57.39
2017-07-18T11:50:00.011Z,57.03
2017-07-18T11:54:57.508Z,55.69
2017-07-18T11:59:53.922Z,55.83
2017-07-18T12:04:51.270Z,54.41
2017-07-18T12:09:47.865Z,55.87
2017-07-18T12:14:43.586Z,55.77
2017-07-18T12:19:39.812Z,54.46
2017-07-18T13:16:35.908Z,55.71
2017-07-18T13:21:30.779Z,53.92
2017-07-18T13:26:27.812Z,53.27
2017-07-18T13:31:23.768Z,51.35
2017-07-18T13:36:20.036Z,52.13
2017-07-18T13:41:16.944Z,50.46
2017-07-18T13:46:13.752Z,53.34
2017-07-18T13:51:09.147Z,51.62
2017-07-18T13:56:04.803Z,53.73
2017-07-18T14:01:01.108Z,53.53
2017-07-18T14:05:57.151Z,53.63
2017-07-18T14:10:53.340Z,54.28
2017-07-18T14:15:49.409Z,57.04
2017-07-18T14:20:44.015Z,56.39
2017-07-18T14:25:39.240Z,56.00
2017-07-18T14:30:34.958Z,54.38
2017-07-18T14:35:30.705Z,56.49
2017-07-18T14:40:26.506Z,56.23
2017-07-18T14:45:22.412Z,55.81
2017-07-18T14:50:18.292Z,54.35
2017-07-18T14:55:15.134Z,55.90
2017-07-18T15:00:10.596Z,56.20
2017-07-18T15:05:07.585Z,56.39
2017-07-18T15:10:04.404Z,57.19
2017-07-18T15:15:00.267Z,56.77
2017-07-18T15:19:57.411Z,57.36
2017-07-18T15:24:52.983Z,56.23
2017-07-18T15:29:49.832Z,56.81
2017-07-18T15:34:45.667Z,54.86
2017-07-18T15:39:44.871Z,56.03
2017-07-18T15:44:40.156Z,56.90
2017-07-18T15:49:37.064Z,55.83
2017-07-18T15:54:33.319Z,55.64
2017-07-18T15:59:29.386Z,55.74
2017-07-18T16:04:27.388Z,56.68
2017-07-18T16:09:23.492Z,56.13
2017-07-18T16:14:20.852Z,57.48
2017-07-18T16:19:17.515Z,57.78
2017-07-18T16:24:15.368Z,56.68
2017-07-18T16:29:10.820Z,56.49
2017-07-18T16:39:08.396Z,57.75
2017-07-18T16:44:05.028Z,58.14
2017-07-18T16:49:01.913Z,57.75
2017-07-18T16:53:57.584Z,56.97
2017-07-18T16:58:53.398Z,57.17
2017-07-18T17:03:54.546Z,57.65
2017-07-18T17:08:49.678Z,57.45
2017-07-18T17:13:45.734Z,58.72
2017-07-18T17:18:42.630Z,59.27
2017-07-18T17:23:38.355Z,59.75
2017-07-18T17:28:34.342Z,60.50
2017-07-18T17:33:30.490Z,61.11
2017-07-18T17:38:26.564Z,60.69
2017-07-18T17:43:23.551Z,61.27
2017-07-18T17:48:20.388Z,63.21
2017-07-18T17:53:17.260Z,62.53
2017-07-18T17:58:13.118Z,61.66
2017-07-18T18:03:08.961Z,62.34
2017-07-18T18:08:05.143Z,63.01
2017-07-18T18:13:02.321Z,63.76
2017-07-18T18:17:58.091Z,63.56
2017-07-18T18:22:54.555Z,64.53
2017-07-18T18:27:51.428Z,65.79
2017-07-18T18:32:46.930Z,65.98
2017-07-18T18:37:42.815Z,66.24
2017-07-18T18:42:40.124Z,66.72
2017-07-18T18:47:37.335Z,67.40
2017-07-18T18:52:34.193Z,67.69
2017-07-18T18:57:29.825Z,68.72
2017-07-18T19:02:26.612Z,69.10
2017-07-18T19:07:22.011Z,69.98
2017-07-18T19:12:19.127Z,70.65
2017-07-18T19:22:17.403Z,71.48
2017-07-18T19:27:12.875Z,71.87
2017-07-18T19:32:09.012Z,72.03
2017-07-18T19:37:04.824Z,73.09
2017-07-18T19:42:00.702Z,72.80
2017-07-18T19:46:57.783Z,72.22
2017-07-18T19:51:54.345Z,73.58
2017-07-18T19:56:51.901Z,74.02
2017-07-18T20:01:47.374Z,74.41
2017-07-18T20:06:43.857Z,75.18
2017-07-18T20:11:39.796Z,75.92
2017-07-18T20:16:36.278Z,76.78
2017-07-18T20:21:32.176Z,77.65
2017-07-18T20:26:30.132Z,77.51
2017-07-18T20:31:26.196Z,77.90
2017-07-18T20:36:21.600Z,78.19
2017-07-18T20:41:17.614Z,79.64
2017-07-18T20:46:13.652Z,79.44
2017-07-18T20:51:09.693Z,80.37
2017-07-18T20:56:07.347Z,80.56
2017-07-18T21:01:04.070Z,80.56
2017-07-18T21:06:00.730Z,80.66
2017-07-18T21:10:56.727Z,81.33
2017-07-18T21:15:52.534Z,81.68
2017-07-18T21:20:49.404Z,81.68
2017-07-18T21:25:47.279Z,82.06
2017-07-18T21:30:43.653Z,82.93
2017-07-18T21:35:39.466Z,83.03
2017-07-18T21:40:35.783Z,83.61
2017-07-18T21:45:31.662Z,83.22
2017-07-18T21:50:27.567Z,84.05
2017-07-18T21:55:24.985Z,84.33
2017-07-18T22:00:21.096Z,85.00
2017-07-18T22:05:18.019Z,84.91
2017-07-18T22:10:14.879Z,85.39
2017-07-18T22:15:10.814Z,86.07
2017-07-18T22:20:06.651Z,86.41
2017-07-18T22:25:02.614Z,86.69
2017-07-18T22:30:01.175Z,86.60
2017-07-18T22:34:57.498Z,87.37
2017-07-18T22:39:53.205Z,87.76
2017-07-18T22:44:50.476Z,88.00
2017-07-18T22:49:48.540Z,88.24
2017-07-18T22:54:45.008Z,88.43
2017-07-18T22:59:42.169Z,89.06
2017-07-18T23:04:37.585Z,89.06
2017-07-18T23:09:34.682Z,89.25
2017-07-18T23:14:32.875Z,89.64
2017-07-18T23:19:28.790Z,90.02
2017-07-18T23:24:26.253Z,90.41
2017-07-18T23:29:22.295Z,90.59
2017-07-18T23:34:18.036Z,90.36
2017-07-18T23:39:15.401Z,91.03
2017-07-18T23:44:11.246Z,90.94
2017-07-18T23:49:07.324Z,90.94
2017-07-18T23:54:05.059Z,91.61
2017-07-18T23:59:01.245Z,91.22
